Time;durP1;ratioP1;P1;durP2;ratioP2;P2;SDS_P1;SDS_P2;PMS_P1;PMS_P2;Temp;Humidity;BMP_temperature;BMP_pressure;BME280_temperature;BME280_humidity;BME280_pressure;Samples;Min_cycle;Max_cycle;Signal;HPM_P1;HPM_P2
2024/01/31 00:00:24;;;;;;;75.93;37.47;;;2.80;99.90;;;;;;2073537;28;20104;-81
2024/01/31 00:01:25;;;;;;;79.18;37.45;;;2.80;99.90;;;;;;2058560;28;20106;-81
2024/01/31 00:02:26;;;;;;;78.40;37.80;;;2.70;99.90;;;;;;2065154;28;20014;-83
2024/01/31 00:03:26;;;;;;;76.85;37.67;;;2.70;99.90;;;;;;2077552;28;20022;-83
2024/01/31 00:04:27;;;;;;;80.38;38.58;;;2.70;99.90;;;;;;2078948;28;20014;-82
2024/01/31 00:05:27;;;;;;;73.57;37.40;;;2.70;99.90;;;;;;2076834;28;20093;-82
2024/01/31 00:06:28;;;;;;;80.60;38.28;;;2.70;99.90;;;;;;2069838;28;20049;-83
2024/01/31 00:07:28;;;;;;;78.88;38.08;;;2.70;99.90;;;;;;2072940;28;20049;-80
2024/01/31 00:08:31;;;;;;;75.28;37.00;;;2.70;99.90;;;;;;2078467;28;20026;-82
2024/01/31 00:09:32;;;;;;;75.07;37.25;;;2.80;99.90;;;;;;2059363;28;20019;-79
2024/01/31 00:10:33;;;;;;;79.82;38.33;;;2.80;99.90;;;;;;2067524;28;20034;-80
2024/01/31 00:11:33;;;;;;;77.93;37.70;;;2.80;99.90;;;;;;2061954;28;20029;-82
2024/01/31 00:12:34;;;;;;;74.32;37.58;;;2.80;99.90;;;;;;2063531;28;20033;-81
2024/01/31 00:13:34;;;;;;;78.05;37.65;;;2.90;99.90;;;;;;2072556;28;20026;-83
2024/01/31 00:14:35;;;;;;;80.10;38.28;;;2.90;99.90;;;;;;2063577;28;20030;-83
2024/01/31 00:15:35;;;;;;;79.22;39.13;;;2.90;99.90;;;;;;2046883;28;20020;-82
2024/01/31 00:16:36;;;;;;;82.43;41.35;;;2.90;99.90;;;;;;2062975;28;20023;-82
2024/01/31 00:17:37;;;;;;;82.20;40.00;;;2.90;99.90;;;;;;2071642;28;20053;-83
2024/01/31 00:18:37;;;;;;;77.97;38.55;;;2.90;99.90;;;;;;2071752;28;20381;-80
2024/01/31 00:19:38;;;;;;;74.38;37.10;;;2.90;99.90;;;;;;2074731;28;20030;-81
2024/01/31 00:20:38;;;;;;;75.93;37.25;;;2.90;99.90;;;;;;2067083;28;20010;-81
2024/01/31 00:21:39;;;;;;;74.35;36.75;;;2.90;99.90;;;;;;2059099;28;20065;-80
2024/01/31 00:22:40;;;;;;;76.50;38.58;;;2.90;99.90;;;;;;2054025;28;20074;-82
2024/01/31 00:23:40;;;;;;;80.30;38.33;;;2.90;99.90;;;;;;2068738;28;20022;-80
2024/01/31 00:24:41;;;;;;;78.28;39.50;;;2.80;99.90;;;;;;2072271;28;20026;-81
2024/01/31 00:25:41;;;;;;;76.15;38.45;;;2.80;99.90;;;;;;2075090;28;20050;-84
2024/01/31 00:26:42;;;;;;;76.32;37.70;;;2.80;99.90;;;;;;2062014;28;20575;-83
2024/01/31 00:27:43;;;;;;;77.88;37.60;;;2.80;99.90;;;;;;2047276;28;20039;-79
2024/01/31 00:28:43;;;;;;;74.40;36.45;;;2.80;99.90;;;;;;2063696;28;20162;-80
2024/01/31 00:29:44;;;;;;;78.13;37.75;;;2.90;99.90;;;;;;2067613;28;20030;-81
2024/01/31 00:30:45;;;;;;;74.07;36.70;;;2.90;99.90;;;;;;2061114;28;20030;-82
2024/01/31 00:31:45;;;;;;;78.18;38.67;;;2.90;99.90;;;;;;2054357;28;20058;-82
2024/01/31 00:32:46;;;;;;;72.47;36.42;;;2.90;99.90;;;;;;2069204;28;20030;-83
2024/01/31 00:33:46;;;;;;;73.97;37.20;;;2.90;99.90;;;;;;2075703;28;20077;-81
2024/01/31 00:34:47;;;;;;;76.07;37.45;;;3.00;99.90;;;;;;2067320;28;20097;-82
2024/01/31 00:35:47;;;;;;;78.43;38.00;;;3.00;99.90;;;;;;2077305;28;20041;-82
2024/01/31 00:36:48;;;;;;;79.00;38.42;;;3.00;99.90;;;;;;2062395;28;20117;-81
2024/01/31 00:37:48;;;;;;;77.60;37.63;;;2.90;99.90;;;;;;2069032;28;20022;-81
2024/01/31 00:38:49;;;;;;;74.97;37.03;;;2.90;99.90;;;;;;2069464;28;20030;-82
2024/01/31 00:39:50;;;;;;;77.32;38.58;;;2.90;99.90;;;;;;2067780;28;20733;-82
2024/01/31 00:40:50;;;;;;;76.72;37.13;;;2.90;99.90;;;;;;2068702;28;20108;-84
2024/01/31 00:41:51;;;;;;;73.70;36.80;;;2.90;99.90;;;;;;2064893;28;20030;-81
2024/01/31 00:42:51;;;;;;;75.57;37.15;;;3.00;99.90;;;;;;2076347;28;20026;-81
2024/01/31 00:43:52;;;;;;;75.20;36.50;;;3.00;99.90;;;;;;2059260;28;20050;-82
2024/01/31 00:44:52;;;;;;;76.72;37.83;;;3.10;99.90;;;;;;2067169;28;20092;-81
2024/01/31 00:45:53;;;;;;;78.90;37.95;;;3.00;99.90;;;;;;2072090;28;20037;-81
2024/01/31 00:46:54;;;;;;;80.47;39.47;;;3.00;99.90;;;;;;2060174;28;20039;-80
2024/01/31 00:47:54;;;;;;;75.30;37.72;;;3.00;99.90;;;;;;2067678;28;20049;-81
2024/01/31 00:48:55;;;;;;;79.28;39.00;;;3.00;99.90;;;;;;2074351;28;20705;-81
2024/01/31 00:49:55;;;;;;;77.72;38.92;;;3.00;99.90;;;;;;2063758;28;20117;-79
2024/01/31 00:50:56;;;;;;;82.18;40.55;;;3.00;99.90;;;;;;2070689;28;20029;-81
2024/01/31 00:51:56;;;;;;;79.35;39.05;;;3.00;99.90;;;;;;2075641;28;20033;-81
2024/01/31 00:52:57;;;;;;;80.88;38.30;;;3.00;99.90;;;;;;2065592;28;20034;-82
2024/01/31 00:53:58;;;;;;;79.82;38.78;;;3.00;99.90;;;;;;2067018;28;20065;-81
2024/01/31 00:54:58;;;;;;;80.03;38.90;;;3.00;99.90;;;;;;2060043;28;20039;-82
2024/01/31 00:55:59;;;;;;;84.78;39.33;;;3.00;99.90;;;;;;2061289;28;20084;-81
2024/01/31 00:56:59;;;;;;;80.50;39.33;;;3.00;99.90;;;;;;2072238;28;20395;-82
2024/01/31 00:58:00;;;;;;;81.40;39.60;;;3.00;99.90;;;;;;2070809;28;20574;-82
2024/01/31 00:59:01;;;;;;;80.18;39.65;;;3.00;99.90;;;;;;2073009;28;20026;-81
2024/01/31 01:00:08;;;;;;;78.13;39.10;;;3.00;99.90;;;;;;2057974;28;20178;-82
2024/01/31 01:01:09;;;;;;;80.75;38.55;;;3.00;99.90;;;;;;2051772;28;20090;-81
2024/01/31 01:02:10;;;;;;;81.93;38.75;;;3.00;99.90;;;;;;2072346;28;20117;-84
2024/01/31 01:03:11;;;;;;;76.32;38.13;;;3.00;99.90;;;;;;2069577;28;20053;-82
2024/01/31 01:04:11;;;;;;;73.93;37.70;;;2.90;99.90;;;;;;2062006;28;20042;-83
2024/01/31 01:05:12;;;;;;;85.20;41.55;;;3.00;99.90;;;;;;2063281;28;20034;-83
2024/01/31 01:06:12;;;;;;;77.05;39.10;;;3.00;99.90;;;;;;2057549;28;20472;-80
2024/01/31 01:07:13;;;;;;;81.85;39.15;;;3.00;99.90;;;;;;2071730;28;20045;-82
2024/01/31 01:08:13;;;;;;;81.65;39.00;;;3.00;99.90;;;;;;2071448;28;20110;-83
2024/01/31 01:09:14;;;;;;;79.03;38.60;;;2.90;99.90;;;;;;2071357;28;20594;-83
2024/01/31 01:10:16;;;;;;;82.25;38.83;;;2.90;99.90;;;;;;2069955;28;20045;-82
2024/01/31 01:11:17;;;;;;;80.47;40.35;;;2.90;99.90;;;;;;2065646;28;20027;-83
2024/01/31 01:12:18;;;;;;;80.38;38.85;;;2.80;99.90;;;;;;2061646;28;20025;-83
2024/01/31 01:13:18;;;;;;;80.10;39.33;;;2.80;99.90;;;;;;2074724;28;20785;-82
2024/01/31 01:14:19;;;;;;;87.63;40.33;;;2.90;99.90;;;;;;2057633;28;20030;-83
2024/01/31 01:15:19;;;;;;;85.85;40.65;;;2.80;99.90;;;;;;2044507;28;20054;-83
2024/01/31 01:16:20;;;;;;;80.95;40.10;;;2.90;99.90;;;;;;2062510;28;20069;-82
2024/01/31 01:17:21;;;;;;;83.43;40.58;;;2.90;99.90;;;;;;2062434;28;20030;-82
2024/01/31 01:18:21;;;;;;;82.03;39.67;;;2.90;99.90;;;;;;2053394;28;20023;-81
2024/01/31 01:19:22;;;;;;;82.90;39.58;;;2.80;99.90;;;;;;2053030;28;20026;-82
2024/01/31 01:20:22;;;;;;;83.25;39.92;;;2.90;99.90;;;;;;2052594;28;20034;-81
2024/01/31 01:21:23;;;;;;;82.05;39.65;;;2.90;99.90;;;;;;2064731;28;20068;-83
2024/01/31 01:22:23;;;;;;;84.65;39.88;;;2.90;99.90;;;;;;2069825;28;20101;-80
2024/01/31 01:23:24;;;;;;;82.40;40.15;;;3.00;99.90;;;;;;2066065;28;20022;-83
2024/01/31 01:24:25;;;;;;;79.13;39.38;;;2.90;99.90;;;;;;2064346;28;20022;-84
2024/01/31 01:25:25;;;;;;;83.38;39.70;;;2.90;99.90;;;;;;2070290;28;20036;-83
2024/01/31 01:26:26;;;;;;;85.72;39.40;;;2.90;99.90;;;;;;2073302;28;20030;-83
2024/01/31 01:27:26;;;;;;;82.60;39.33;;;2.90;99.90;;;;;;2064597;28;20056;-82
2024/01/31 01:28:27;;;;;;;80.40;39.55;;;3.00;99.90;;;;;;2070427;28;20037;-83
2024/01/31 01:29:28;;;;;;;83.18;39.00;;;3.00;99.90;;;;;;2074169;28;20510;-83
2024/01/31 01:30:28;;;;;;;80.30;39.40;;;3.00;99.90;;;;;;2073932;28;20022;-81
2024/01/31 01:31:29;;;;;;;83.65;40.00;;;3.00;99.90;;;;;;2065192;28;20060;-81
2024/01/31 01:32:29;;;;;;;83.80;39.63;;;3.00;99.90;;;;;;2066211;28;20393;-80
2024/01/31 01:33:30;;;;;;;83.45;39.05;;;3.10;99.90;;;;;;2084846;28;20508;-82
2024/01/31 01:34:30;;;;;;;87.63;41.30;;;3.10;99.90;;;;;;2073966;28;20104;-83
2024/01/31 01:35:31;;;;;;;77.90;39.55;;;3.10;99.90;;;;;;2064118;28;20033;-83
2024/01/31 01:36:32;;;;;;;80.13;38.67;;;3.10;99.90;;;;;;2053541;28;20023;-82
2024/01/31 01:37:32;;;;;;;82.25;40.20;;;3.10;99.90;;;;;;2065822;28;20038;-80
2024/01/31 01:38:33;;;;;;;75.57;37.38;;;3.10;99.90;;;;;;2073858;28;20033;-83
2024/01/31 01:39:37;;;;;;;83.18;40.63;;;3.10;99.90;;;;;;2073914;28;20025;-83
2024/01/31 01:40:44;;;;;;;83.50;40.10;;;3.10;99.90;;;;;;2064296;28;20459;-77
2024/01/31 01:41:48;;;;;;;82.75;40.17;;;3.10;99.90;;;;;;2065796;28;20029;-77
2024/01/31 01:42:49;;;;;;;80.90;40.55;;;3.00;99.90;;;;;;2071728;28;20112;-78
2024/01/31 01:43:49;;;;;;;81.65;40.00;;;3.00;99.90;;;;;;2070611;28;20136;-77
2024/01/31 01:44:50;;;;;;;79.38;39.47;;;3.00;99.90;;;;;;2070151;28;20018;-78
2024/01/31 01:46:03;;;;;;;83.13;40.72;;;3.00;99.90;;;;;;2064284;28;20892;-77
2024/01/31 01:47:03;;;;;;;84.68;39.58;;;3.10;99.90;;;;;;2063308;28;20087;-74
2024/01/31 01:48:04;;;;;;;83.55;39.45;;;3.10;99.90;;;;;;2055498;28;20476;-76
2024/01/31 01:49:04;;;;;;;83.60;39.72;;;3.10;99.90;;;;;;2076413;28;20332;-77
2024/01/31 01:50:07;;;;;;;80.57;39.85;;;3.10;99.90;;;;;;2071986;28;20085;-76
2024/01/31 01:51:08;;;;;;;79.93;39.22;;;3.10;99.90;;;;;;2071614;28;20061;-76
2024/01/31 01:52:09;;;;;;;85.63;41.13;;;3.10;99.90;;;;;;2072514;28;20483;-76
2024/01/31 01:53:10;;;;;;;82.53;40.95;;;3.20;99.90;;;;;;2067558;28;20027;-76
2024/01/31 01:54:12;;;;;;;82.70;39.35;;;3.10;99.90;;;;;;2071669;28;20024;-78
2024/01/31 01:55:13;;;;;;;84.35;41.05;;;3.20;99.90;;;;;;2068504;28;20061;-77
2024/01/31 01:56:14;;;;;;;82.78;39.88;;;3.20;99.90;;;;;;2068004;28;20108;-77
2024/01/31 01:57:15;;;;;;;78.70;38.97;;;3.20;99.90;;;;;;2067696;28;20040;-77
2024/01/31 01:58:16;;;;;;;81.53;39.22;;;3.30;99.90;;;;;;2071700;28;20054;-77
2024/01/31 01:59:16;;;;;;;81.38;39.85;;;3.30;99.90;;;;;;2078096;28;20574;-77
2024/01/31 02:00:18;;;;;;;81.93;40.50;;;3.30;99.90;;;;;;2075104;28;20036;-79
2024/01/31 02:01:19;;;;;;;77.35;39.28;;;3.30;99.90;;;;;;2079568;28;20029;-77
2024/01/31 02:02:20;;;;;;;84.15;39.83;;;3.30;99.90;;;;;;2072188;28;20041;-77
2024/01/31 02:03:22;;;;;;;83.07;39.92;;;3.30;99.90;;;;;;2071589;28;20129;-77
2024/01/31 02:04:24;;;;;;;83.38;40.05;;;3.30;99.90;;;;;;2070423;28;20037;-77
2024/01/31 02:05:24;;;;;;;77.65;39.33;;;3.30;99.90;;;;;;2066741;28;20026;-77
2024/01/31 02:06:25;;;;;;;86.18;40.47;;;3.30;99.90;;;;;;2071966;28;20022;-77
2024/01/31 02:07:26;;;;;;;92.07;39.30;;;3.20;99.90;;;;;;2070440;28;20472;-77
2024/01/31 02:08:28;;;;;;;81.28;40.08;;;3.20;99.90;;;;;;2069553;28;20144;-77
2024/01/31 02:09:29;;;;;;;82.38;40.28;;;3.20;99.90;;;;;;2072035;28;20030;-77
2024/01/31 02:10:29;;;;;;;83.50;40.45;;;3.20;99.90;;;;;;2079757;28;20060;-78
2024/01/31 02:11:31;;;;;;;78.63;39.53;;;3.20;99.90;;;;;;2076454;28;20033;-79
2024/01/31 02:12:31;;;;;;;83.47;40.42;;;3.20;99.90;;;;;;2067285;28;20034;-80
2024/01/31 02:13:32;;;;;;;82.30;40.78;;;3.20;99.90;;;;;;2069070;28;20033;-78
2024/01/31 02:14:32;;;;;;;82.10;39.67;;;3.20;99.90;;;;;;2070628;28;20510;-78
2024/01/31 02:15:33;;;;;;;85.15;41.10;;;3.20;99.90;;;;;;2070199;28;20120;-78
2024/01/31 02:16:34;;;;;;;78.82;39.10;;;3.20;99.90;;;;;;2069469;28;20057;-78
2024/01/31 02:17:34;;;;;;;83.45;39.95;;;3.30;99.90;;;;;;2064428;28;20022;-78
2024/01/31 02:18:35;;;;;;;80.13;39.75;;;3.30;99.90;;;;;;2068310;28;20029;-78
2024/01/31 02:19:35;;;;;;;81.75;40.13;;;3.30;99.90;;;;;;2071223;28;20543;-76
2024/01/31 02:20:36;;;;;;;81.45;39.60;;;3.20;99.90;;;;;;2070043;28;20045;-78
2024/01/31 02:21:41;;;;;;;79.82;39.75;;;3.30;99.90;;;;;;2068307;28;20064;-78
2024/01/31 02:22:46;;;;;;;80.78;39.67;;;3.40;99.90;;;;;;2060033;28;20038;-77
2024/01/31 02:23:47;;;;;;;82.03;39.83;;;3.30;99.90;;;;;;2062719;28;20035;-77
2024/01/31 02:24:47;;;;;;;81.45;40.90;;;3.30;99.90;;;;;;2075945;28;20025;-77
2024/01/31 02:25:48;;;;;;;80.82;39.45;;;3.30;99.90;;;;;;2075955;28;20068;-77
2024/01/31 02:26:49;;;;;;;81.00;39.30;;;3.30;99.90;;;;;;2078784;28;20018;-79
2024/01/31 02:27:49;;;;;;;81.53;40.00;;;3.30;99.90;;;;;;2068536;28;20029;-77
2024/01/31 02:28:50;;;;;;;80.95;40.65;;;3.30;99.90;;;;;;2072198;28;20076;-78
2024/01/31 02:29:50;;;;;;;81.50;40.67;;;3.40;99.90;;;;;;2070924;28;20603;-77
2024/01/31 02:30:51;;;;;;;82.32;40.45;;;3.30;99.90;;;;;;2069724;28;20898;-77
2024/01/31 02:31:52;;;;;;;83.38;40.38;;;3.40;99.90;;;;;;2071135;28;20428;-76
2024/01/31 02:32:54;;;;;;;84.38;40.72;;;3.30;99.90;;;;;;2071563;28;20032;-77
2024/01/31 02:33:54;;;;;;;78.18;40.20;;;3.30;99.90;;;;;;2061595;28;20038;-77
2024/01/31 02:34:55;;;;;;;84.95;41.58;;;3.30;99.90;;;;;;2059180;28;20396;-77
2024/01/31 02:35:55;;;;;;;81.78;39.30;;;3.40;99.90;;;;;;2068149;28;20495;-76
2024/01/31 02:36:56;;;;;;;79.43;39.58;;;3.40;99.90;;;;;;2072102;28;20057;-78
2024/01/31 02:37:57;;;;;;;83.90;41.15;;;3.40;99.90;;;;;;2065866;28;20108;-77
2024/01/31 02:38:58;;;;;;;82.90;40.17;;;3.40;99.90;;;;;;2073114;28;20097;-77
2024/01/31 02:39:59;;;;;;;83.13;39.50;;;3.50;99.90;;;;;;2074458;28;20454;-76
2024/01/31 02:41:00;;;;;;;80.05;40.75;;;3.40;99.90;;;;;;2072170;28;20780;-77
2024/01/31 02:42:00;;;;;;;84.88;40.92;;;3.40;99.90;;;;;;2081601;28;20085;-77
2024/01/31 02:43:01;;;;;;;81.53;40.58;;;3.40;99.90;;;;;;2074720;28;20037;-77
2024/01/31 02:44:02;;;;;;;80.25;40.60;;;3.30;99.90;;;;;;2071350;28;20030;-78
2024/01/31 02:45:03;;;;;;;82.65;40.45;;;3.30;99.90;;;;;;2070594;28;20038;-77
2024/01/31 02:46:04;;;;;;;82.53;40.63;;;3.30;99.90;;;;;;2072226;28;20033;-77
2024/01/31 02:47:04;;;;;;;82.88;40.97;;;3.40;99.90;;;;;;2070633;28;20037;-77
2024/01/31 02:48:05;;;;;;;83.40;41.22;;;3.40;99.90;;;;;;2072289;28;20037;-76
2024/01/31 02:49:08;;;;;;;78.72;39.22;;;3.40;99.90;;;;;;2079825;28;20025;-77
2024/01/31 02:50:08;;;;;;;78.70;40.10;;;3.40;99.90;;;;;;2074035;28;20034;-76
2024/01/31 02:51:09;;;;;;;80.57;40.13;;;3.40;99.90;;;;;;2071830;28;20615;-77
2024/01/31 02:52:09;;;;;;;79.65;40.08;;;3.40;99.90;;;;;;2070199;28;20034;-76
2024/01/31 02:53:10;;;;;;;78.75;39.85;;;3.40;99.90;;;;;;2071506;28;20088;-76
2024/01/31 02:54:11;;;;;;;84.10;40.92;;;3.40;99.90;;;;;;2070905;28;20123;-77
2024/01/31 02:55:11;;;;;;;77.05;39.72;;;3.40;99.90;;;;;;2070785;28;20076;-78
2024/01/31 02:56:12;;;;;;;81.97;40.35;;;3.40;99.90;;;;;;2072679;28;20034;-77
2024/01/31 02:57:12;;;;;;;81.40;40.17;;;3.40;99.90;;;;;;2071422;28;20030;-77
2024/01/31 02:58:13;;;;;;;82.63;40.58;;;3.40;99.90;;;;;;2070678;28;20399;-77
2024/01/31 02:59:13;;;;;;;80.97;40.17;;;3.40;99.90;;;;;;2072610;28;20492;-77
2024/01/31 03:00:14;;;;;;;79.78;39.33;;;3.40;99.90;;;;;;2071236;28;20073;-76
2024/01/31 03:01:15;;;;;;;81.32;40.67;;;3.40;99.90;;;;;;2066563;28;20391;-78
2024/01/31 03:02:17;;;;;;;81.75;40.58;;;3.50;99.90;;;;;;2073399;28;20479;-79
2024/01/31 03:03:18;;;;;;;82.15;40.60;;;3.50;99.90;;;;;;2072602;28;20041;-78
2024/01/31 03:04:18;;;;;;;80.10;40.10;;;3.50;99.90;;;;;;2069217;28;20033;-78
2024/01/31 03:05:19;;;;;;;80.72;40.38;;;3.50;99.90;;;;;;2068894;28;20034;-77
2024/01/31 03:06:20;;;;;;;80.28;40.42;;;3.50;99.90;;;;;;2073233;28;20514;-77
2024/01/31 03:07:20;;;;;;;77.15;40.53;;;3.40;99.90;;;;;;2072994;28;20029;-77
2024/01/31 03:08:21;;;;;;;81.70;40.38;;;3.40;99.90;;;;;;2068368;28;20073;-77
2024/01/31 03:09:21;;;;;;;81.80;40.83;;;3.40;99.90;;;;;;2064719;28;20034;-79
2024/01/31 03:10:22;;;;;;;78.32;39.45;;;3.40;99.90;;;;;;2065730;28;20669;-77
2024/01/31 03:11:22;;;;;;;79.85;40.10;;;3.40;99.90;;;;;;2064715;28;20049;-77
2024/01/31 03:12:23;;;;;;;77.47;39.10;;;3.40;99.90;;;;;;2072542;28;20021;-76
2024/01/31 03:13:23;;;;;;;81.38;40.50;;;3.50;99.90;;;;;;2070211;28;20676;-77
2024/01/31 03:14:24;;;;;;;78.75;39.58;;;3.50;99.90;;;;;;2069413;28;20033;-77
2024/01/31 03:15:24;;;;;;;85.57;40.95;;;3.50;99.90;;;;;;2069248;28;20025;-76
2024/01/31 03:16:25;;;;;;;77.63;40.03;;;3.50;99.90;;;;;;2068470;28;20036;-78
2024/01/31 03:17:26;;;;;;;81.60;40.80;;;3.50;99.90;;;;;;2072656;28;20041;-75
2024/01/31 03:18:26;;;;;;;79.72;39.95;;;3.50;99.90;;;;;;2072730;28;20471;-77
2024/01/31 03:19:29;;;;;;;80.78;40.80;;;3.40;99.90;;;;;;2068973;28;20025;-77
2024/01/31 03:20:29;;;;;;;78.05;39.28;;;3.40;99.90;;;;;;2072469;28;20506;-77
2024/01/31 03:21:29;;;;;;;81.95;40.72;;;3.50;99.90;;;;;;2068662;28;20128;-76
2024/01/31 03:22:30;;;;;;;82.22;40.80;;;3.40;99.90;;;;;;2068191;28;20109;-76
2024/01/31 03:23:31;;;;;;;81.68;40.55;;;3.40;99.90;;;;;;2068974;28;20034;-77
2024/01/31 03:24:31;;;;;;;80.22;40.67;;;3.40;99.90;;;;;;2065956;28;20045;-77
2024/01/31 03:25:32;;;;;;;74.13;38.28;;;3.40;99.90;;;;;;2060838;28;20089;-77
2024/01/31 03:26:33;;;;;;;78.57;39.83;;;3.40;99.90;;;;;;2072609;28;20036;-77
2024/01/31 03:27:33;;;;;;;80.07;39.83;;;3.50;99.90;;;;;;2076633;28;20040;-76
2024/01/31 03:28:34;;;;;;;82.65;40.70;;;3.50;99.90;;;;;;2068154;28;20030;-76
2024/01/31 03:29:36;;;;;;;79.15;39.67;;;3.50;99.90;;;;;;2064797;28;20064;-76
2024/01/31 03:30:36;;;;;;;78.18;39.65;;;3.50;99.90;;;;;;2067398;28;20022;-77
2024/01/31 03:31:37;;;;;;;78.00;40.15;;;3.60;99.90;;;;;;2070296;28;20045;-78
2024/01/31 03:32:38;;;;;;;80.80;40.40;;;3.50;99.90;;;;;;2064973;28;20499;-77
2024/01/31 03:33:38;;;;;;;81.57;40.63;;;3.50;99.90;;;;;;2077647;28;20029;-77
2024/01/31 03:34:39;;;;;;;82.85;40.28;;;3.40;99.90;;;;;;2079248;28;20036;-78
2024/01/31 03:35:39;;;;;;;80.25;39.65;;;3.50;99.90;;;;;;2066988;28;20656;-78
2024/01/31 03:36:40;;;;;;;78.03;39.85;;;3.60;99.90;;;;;;2071944;28;20033;-77
2024/01/31 03:37:42;;;;;;;83.25;40.25;;;3.60;99.90;;;;;;2072371;28;20026;-77
2024/01/31 03:38:42;;;;;;;77.72;39.78;;;3.60;99.90;;;;;;2070210;28;20545;-77
2024/01/31 03:39:43;;;;;;;81.18;39.70;;;3.60;99.90;;;;;;2070009;28;20049;-78
2024/01/31 03:40:43;;;;;;;81.03;40.63;;;3.60;99.90;;;;;;2068368;28;20072;-78
2024/01/31 03:41:44;;;;;;;79.97;40.58;;;3.60;99.90;;;;;;2069888;28;20079;-77
2024/01/31 03:42:44;;;;;;;80.03;40.28;;;3.60;99.90;;;;;;2063705;28;20093;-78
2024/01/31 03:43:45;;;;;;;79.75;40.03;;;3.60;99.90;;;;;;2072035;28;20072;-78
2024/01/31 03:44:45;;;;;;;83.28;40.67;;;3.60;99.90;;;;;;2071757;28;20034;-77
2024/01/31 03:45:46;;;;;;;81.85;39.90;;;3.50;99.90;;;;;;2072153;28;20021;-77
2024/01/31 03:46:47;;;;;;;80.00;40.03;;;3.50;99.90;;;;;;2068846;28;20040;-77
2024/01/31 03:47:47;;;;;;;80.00;40.88;;;3.50;99.90;;;;;;2059361;28;20392;-77
2024/01/31 03:48:48;;;;;;;79.28;40.33;;;3.50;99.90;;;;;;2072014;28;20025;-77
2024/01/31 03:49:51;;;;;;;73.47;38.38;;;3.60;99.90;;;;;;2070313;28;20022;-77
2024/01/31 03:50:51;;;;;;;80.78;39.80;;;3.60;99.90;;;;;;2070629;28;20029;-76
2024/01/31 03:51:52;;;;;;;81.22;40.67;;;3.60;99.90;;;;;;2070452;28;20036;-76
2024/01/31 03:52:52;;;;;;;77.75;39.25;;;3.60;99.90;;;;;;2067923;28;20041;-77
2024/01/31 03:53:53;;;;;;;82.90;39.80;;;3.60;99.90;;;;;;2069208;28;20599;-76
2024/01/31 03:54:54;;;;;;;82.15;40.40;;;3.60;99.90;;;;;;2069830;28;20041;-77
2024/01/31 03:55:54;;;;;;;79.70;39.35;;;3.60;99.90;;;;;;2070289;28;20033;-72
2024/01/31 03:56:55;;;;;;;81.50;40.35;;;3.60;99.90;;;;;;2070231;28;20407;-77
2024/01/31 03:57:55;;;;;;;81.78;40.20;;;3.60;99.90;;;;;;2068163;28;20054;-67
2024/01/31 03:58:56;;;;;;;78.53;40.08;;;3.60;99.90;;;;;;2068496;28;20025;-77
2024/01/31 04:00:04;;;;;;;80.63;40.65;;;3.60;99.90;;;;;;2052912;28;20827;-76
2024/01/31 04:01:06;;;;;;;82.55;40.65;;;3.60;99.90;;;;;;2064779;28;20456;-75
2024/01/31 04:02:06;;;;;;;84.93;42.47;;;3.60;99.90;;;;;;2072623;28;20033;-75
2024/01/31 04:03:07;;;;;;;85.07;41.63;;;3.60;99.90;;;;;;2072208;28;20040;-79
2024/01/31 04:04:08;;;;;;;78.90;39.78;;;3.60;99.90;;;;;;2071449;28;20091;-77
2024/01/31 04:05:12;;;;;;;80.60;40.22;;;3.70;99.90;;;;;;2056769;28;20129;-77
2024/01/31 04:06:17;;;;;;;82.80;40.53;;;3.70;99.90;;;;;;2072396;28;20511;-76
2024/01/31 04:07:17;;;;;;;83.38;40.95;;;3.70;99.90;;;;;;2072278;28;20045;-77
2024/01/31 04:08:18;;;;;;;80.97;39.08;;;3.70;99.90;;;;;;2071907;28;20037;-76
2024/01/31 04:09:18;;;;;;;81.60;41.10;;;3.70;99.90;;;;;;2083826;28;20033;-76
2024/01/31 04:10:19;;;;;;;80.60;39.90;;;3.70;99.90;;;;;;2072593;28;20021;-78
2024/01/31 04:11:19;;;;;;;81.15;40.53;;;3.70;99.90;;;;;;2065273;28;20026;-78
2024/01/31 04:12:20;;;;;;;86.70;40.67;;;3.60;99.90;;;;;;2071813;28;20299;-78
2024/01/31 04:13:21;;;;;;;80.78;39.63;;;3.60;99.90;;;;;;2071817;28;20503;-78
2024/01/31 04:14:21;;;;;;;82.28;40.20;;;3.60;99.90;;;;;;2069034;28;20026;-78
2024/01/31 04:15:22;;;;;;;81.85;40.63;;;3.60;99.90;;;;;;2070198;28;20028;-78
2024/01/31 04:16:22;;;;;;;78.93;39.35;;;3.70;99.90;;;;;;2068561;28;20025;-76
2024/01/31 04:17:24;;;;;;;78.88;40.55;;;3.60;99.90;;;;;;2067973;28;20034;-76
2024/01/31 04:18:24;;;;;;;82.75;41.30;;;3.60;99.90;;;;;;2068696;28;20069;-77
2024/01/31 04:19:25;;;;;;;78.93;39.83;;;3.60;99.90;;;;;;2067981;28;20056;-77
2024/01/31 04:20:25;;;;;;;78.07;40.13;;;3.60;99.90;;;;;;2072284;28;20032;-77
2024/01/31 04:21:26;;;;;;;79.60;40.45;;;3.60;99.90;;;;;;2072511;28;20022;-77
2024/01/31 04:22:26;;;;;;;77.97;39.53;;;3.60;99.90;;;;;;2069555;28;20032;-77
2024/01/31 04:23:27;;;;;;;80.53;39.55;;;3.60;99.90;;;;;;2066284;28;20050;-77
2024/01/31 04:24:27;;;;;;;79.22;39.40;;;3.60;99.90;;;;;;2068446;28;20022;-77
2024/01/31 04:25:28;;;;;;;78.53;40.80;;;3.60;99.90;;;;;;2067114;28;20026;-77
2024/01/31 04:26:28;;;;;;;79.90;39.45;;;3.60;99.90;;;;;;2067358;28;20026;-76
2024/01/31 04:27:29;;;;;;;80.78;39.90;;;3.70;99.90;;;;;;2072399;28;20030;-76
2024/01/31 04:28:30;;;;;;;82.65;40.72;;;3.70;99.90;;;;;;2065957;28;20034;-76
2024/01/31 04:29:30;;;;;;;84.38;40.63;;;3.60;99.90;;;;;;2064608;28;20026;-76
2024/01/31 04:30:31;;;;;;;82.28;40.50;;;3.70;99.90;;;;;;2069347;28;20025;-71
2024/01/31 04:31:32;;;;;;;79.65;40.30;;;3.60;99.90;;;;;;2062568;28;20077;-76
2024/01/31 04:32:33;;;;;;;82.22;41.42;;;3.70;99.90;;;;;;2067946;28;20085;-76
2024/01/31 04:33:33;;;;;;;80.93;40.63;;;3.70;99.90;;;;;;2070506;28;20038;-76
2024/01/31 04:34:38;;;;;;;86.35;41.53;;;3.70;99.90;;;;;;2070219;28;20029;-76
2024/01/31 04:35:38;;;;;;;81.15;40.20;;;3.60;99.90;;;;;;2068717;28;20069;-77
2024/01/31 04:36:39;;;;;;;78.72;40.03;;;3.60;99.90;;;;;;2066531;28;20022;-77
2024/01/31 04:37:39;;;;;;;80.25;40.20;;;3.70;99.90;;;;;;2067080;28;20037;-77
2024/01/31 04:38:40;;;;;;;80.50;40.72;;;3.60;99.90;;;;;;2068225;28;20065;-77
2024/01/31 04:39:40;;;;;;;82.78;41.30;;;3.60;99.90;;;;;;2063777;28;20137;-77
2024/01/31 04:40:41;;;;;;;78.68;40.70;;;3.60;99.90;;;;;;2070935;28;20092;-77
2024/01/31 04:41:43;;;;;;;80.03;40.50;;;3.60;99.90;;;;;;2069928;28;20026;-77
2024/01/31 04:42:44;;;;;;;83.03;40.80;;;3.60;99.90;;;;;;2068851;28;20034;-77
2024/01/31 04:43:45;;;;;;;82.10;41.35;;;3.50;99.90;;;;;;2068317;28;20085;-77
2024/01/31 04:44:46;;;;;;;81.75;41.08;;;3.50;99.90;;;;;;2072084;28;20448;-77
2024/01/31 04:45:46;;;;;;;81.05;40.92;;;3.50;99.90;;;;;;2065625;28;20030;-77
2024/01/31 04:46:47;;;;;;;81.40;40.38;;;3.50;99.90;;;;;;2068789;28;20019;-77
2024/01/31 04:47:48;;;;;;;85.10;41.58;;;3.50;99.90;;;;;;2073461;28;20030;-77
2024/01/31 04:48:48;;;;;;;78.30;40.40;;;3.50;99.90;;;;;;2074263;28;20040;-75
2024/01/31 04:49:49;;;;;;;82.45;41.40;;;3.50;99.90;;;;;;2082333;28;20621;-76
2024/01/31 04:50:50;;;;;;;85.75;42.28;;;3.50;99.90;;;;;;2074565;28;20033;-77
2024/01/31 04:51:50;;;;;;;88.63;42.22;;;3.50;99.90;;;;;;2068201;28;20041;-75
2024/01/31 04:52:51;;;;;;;84.75;41.85;;;3.50;99.90;;;;;;2074810;28;20084;-77
2024/01/31 04:53:51;;;;;;;79.10;39.92;;;3.50;99.90;;;;;;2074311;28;20530;-76
2024/01/31 04:54:52;;;;;;;83.80;42.20;;;3.60;99.90;;;;;;2068264;28;20523;-77
2024/01/31 04:55:53;;;;;;;86.70;43.22;;;3.60;99.90;;;;;;2067444;28;20081;-77
2024/01/31 04:56:54;;;;;;;81.07;41.53;;;3.60;99.90;;;;;;2068638;28;20144;-77
2024/01/31 04:57:54;;;;;;;84.70;42.28;;;3.60;99.90;;;;;;2072443;28;20044;-76
2024/01/31 04:58:55;;;;;;;81.28;41.42;;;3.60;99.90;;;;;;2068415;28;20025;-75
2024/01/31 04:59:55;;;;;;;79.78;41.42;;;3.60;99.90;;;;;;2069083;28;20030;-86
2024/01/31 05:00:56;;;;;;;82.03;41.85;;;3.60;99.90;;;;;;2069247;28;20119;-77
2024/01/31 05:01:56;;;;;;;86.43;42.65;;;3.60;99.90;;;;;;2069802;28;20083;-77
2024/01/31 05:02:57;;;;;;;86.65;42.15;;;3.70;99.90;;;;;;2067926;28;20041;-77
2024/01/31 05:03:57;;;;;;;85.20;41.45;;;3.70;99.90;;;;;;2071586;28;20033;-77
2024/01/31 05:05:00;;;;;;;83.55;41.63;;;3.70;99.90;;;;;;2071667;28;20029;-78
2024/01/31 05:06:00;;;;;;;84.10;41.45;;;4.00;99.90;;;;;;2068566;28;20426;-77
2024/01/31 05:07:01;;;;;;;82.03;40.55;;;4.10;99.90;;;;;;2067413;28;20030;-77
2024/01/31 05:08:02;;;;;;;83.32;42.58;;;4.30;99.90;;;;;;2068838;28;20479;-76
2024/01/31 05:09:03;;;;;;;81.75;40.90;;;4.20;99.90;;;;;;2068503;28;20084;-77
2024/01/31 05:10:04;;;;;;;85.57;41.47;;;4.10;99.90;;;;;;2078468;28;20091;-77
2024/01/31 05:11:04;;;;;;;84.20;41.65;;;3.90;99.90;;;;;;2077788;28;20510;-76
2024/01/31 05:12:05;;;;;;;81.45;41.65;;;3.90;99.90;;;;;;2063915;28;20084;-77